Time;durP1;ratioP1;P1;durP2;ratioP2;P2;SDS_P1;SDS_P2;PMS_P1;PMS_P2;Temp;Humidity;BMP_temperature;BMP_pressure;BME280_temperature;BME280_humidity;BME280_pressure;Samples;Min_cycle;Max_cycle;Signal;HPM_P1;HPM_P2
2023/10/05 00:00:31;;;;;;;;;7.25;7.25;;;;;21.57;100.00;102033.06;2112403;27;46545;-62
2023/10/05 00:01:24;;;;;;;;;9.50;8.50;;;;;21.57;100.00;102029.50;2112019;27;46517;-61
2023/10/05 00:02:24;;;;;;;;;8.00;6.75;;;;;21.56;100.00;102030.44;2113062;27;46842;-60
2023/10/05 00:03:25;;;;;;;;;10.00;10.00;;;;;21.55;100.00;102028.69;2111999;27;45808;-62
2023/10/05 00:04:27;;;;;;;;;10.00;10.00;;;;;21.54;100.00;102029.66;2104209;28;46337;-57
2023/10/05 00:05:27;;;;;;;;;12.00;9.00;;;;;21.54;100.00;102033.22;2103552;27;46459;-61
2023/10/05 00:06:28;;;;;;;;;11.67;11.67;;;;;21.54;100.00;102033.22;2113081;27;46334;-62
2023/10/05 00:07:32;;;;;;;;;9.00;7.67;;;;;21.52;100.00;102029.72;2112883;27;46496;-62
2023/10/05 00:08:35;;;;;;;;;9.75;9.25;;;;;21.55;100.00;102032.28;2104636;28;46890;-60
2023/10/05 00:09:37;;;;;;;;;10.00;10.00;;;;;21.54;100.00;102038.63;2103682;27;46874;-62
2023/10/05 00:10:37;;;;;;;;;8.25;8.25;;;;;21.53;100.00;102031.47;2113613;27;47033;-61
2023/10/05 00:11:37;;;;;;;;;12.33;10.33;;;;;21.53;100.00;102031.47;2111403;27;46442;-60
2023/10/05 00:12:38;;;;;;;;;11.33;10.00;;;;;21.53;100.00;102030.59;2104496;28;46860;-62
2023/10/05 00:13:38;;;;;;;;;10.00;9.00;;;;;21.51;100.00;102027.97;2103403;28;46374;-61
2023/10/05 00:14:38;;;;;;;;;11.00;10.50;;;;;21.52;100.00;102026.16;2112990;27;46271;-63
2023/10/05 00:15:39;;;;;;;;;8.33;8.33;;;;;21.52;100.00;102028.84;2112248;27;46606;-61
2023/10/05 00:16:44;;;;;;;;;10.75;10.75;;;;;21.52;100.00;102018.03;2113558;27;46644;-66
2023/10/05 00:17:46;;;;;;;;;8.50;8.00;;;;;21.51;100.00;102016.28;2112247;27;46882;-62
2023/10/05 00:18:51;;;;;;;;;10.50;8.00;;;;;21.49;100.00;102012.78;2103063;28;46569;-63
2023/10/05 00:19:52;;;;;;;;;11.60;9.80;;;;;21.48;100.00;102011.03;2094845;28;46854;-59
2023/10/05 00:20:54;;;;;;;;;9.33;8.00;;;;;21.47;100.00;102009.25;2103674;28;46487;-59
2023/10/05 00:21:56;;;;;;;;;12.40;12.40;;;;;21.47;100.00;102007.47;2102232;28;46858;-61
2023/10/05 00:22:58;;;;;;;;;9.00;8.50;;;;;21.47;100.00;102012.88;2098255;28;46166;-62
2023/10/05 00:24:00;;;;;;;;;6.25;6.00;;;;;21.47;100.00;102020.06;2109553;27;46463;-60
2023/10/05 00:25:00;;;;;;;;;11.60;11.60;;;;;21.47;100.00;102010.16;2110272;27;46480;-60
2023/10/05 00:26:01;;;;;;;;;12.00;10.67;;;;;21.47;100.00;102011.97;2112089;27;46223;-63
2023/10/05 00:27:08;;;;;;;;;9.00;9.00;;;;;21.47;100.00;102023.66;2095722;28;46407;-62
2023/10/05 00:28:10;;;;;;;;;10.00;10.00;;;;;21.45;100.00;102025.53;2096182;27;46354;-62
2023/10/05 00:29:28;;;;;;;;;13.00;13.00;;;;;21.46;100.00;102032.69;2110082;27;46394;-58
2023/10/05 00:30:28;;;;;;;;;13.00;11.40;;;;;21.45;100.00;102033.66;2109787;27;46645;-57
2023/10/05 00:31:30;;;;;;;;;12.25;11.00;;;;;21.44;100.00;102030.06;2110522;27;46358;-62
2023/10/05 00:32:39;;;;;;;;;11.20;10.80;;;;;21.50;100.00;102033.44;2111825;27;46474;-60
2023/10/05 00:33:39;;;;;;;;;9.00;9.00;;;;;21.44;100.00;102035.47;2110647;27;46562;-60
2023/10/05 00:34:41;;;;;;;;;13.67;9.67;;;;;21.44;100.00;102037.28;2113016;27;46442;-62
2023/10/05 00:35:41;;;;;;;;;9.60;9.60;;;;;21.42;100.00;102033.78;2111908;27;47146;-61
2023/10/05 00:36:44;;;;;;;;;11.00;9.25;;;;;21.42;100.00;102036.50;2113697;27;46294;-61
2023/10/05 00:37:46;;;;;;;;;12.00;10.75;;;;;21.42;100.00;102037.38;2111912;27;46445;-62
2023/10/05 00:38:46;;;;;;;;;11.75;10.50;;;;;21.42;100.00;102031.09;2113422;27;46667;-60
2023/10/05 00:39:49;;;;;;;;;13.50;13.25;;;;;21.41;100.00;102023.94;2112291;27;46503;-62
2023/10/05 00:41:04;;;;;;;;;16.60;14.20;;;;;21.41;100.00;102030.22;2113448;27;46805;-58
2023/10/05 00:44:19;;;;;;;;;9.75;8.00;;;;;21.41;100.00;102037.44;2111347;27;46399;-61
2023/10/05 00:45:25;;;;;;;;;8.25;7.50;;;;;21.41;100.00;102032.03;2103234;28;46716;-59
2023/10/05 00:46:26;;;;;;;;;10.50;10.50;;;;;21.39;100.00;102025.84;2101835;27;46281;-62
2023/10/05 00:47:27;;;;;;;;;9.50;8.50;;;;;21.40;100.00;102027.59;2110790;27;46323;-60
2023/10/05 00:48:34;;;;;;;;;7.80;6.80;;;;;21.39;100.00;102031.25;2103320;28;46648;-62
2023/10/05 00:49:58;;;;;;;;;9.75;9.00;;;;;21.40;100.00;102027.59;2102759;27;46628;-62
2023/10/05 00:51:06;;;;;;;;;3.25;3.25;;;;;21.42;100.00;102025.69;2113281;27;46966;-62
2023/10/05 00:52:13;;;;;;;;;10.80;9.00;;;;;21.47;100.00;102028.16;2101799;27;46880;-61
2023/10/05 00:53:15;;;;;;;;;12.75;10.50;;;;;21.48;100.00;102021.84;2103675;27;45677;-58
2023/10/05 00:54:19;;;;;;;;;9.40;9.40;;;;;21.47;100.00;102012.88;2112838;27;46958;-59
2023/10/05 00:55:20;;;;;;;;;7.80;7.80;;;;;21.40;100.00;102014.97;2112036;27;46818;-62
2023/10/05 00:56:22;;;;;;;;;11.33;9.33;;;;;21.42;100.00;102009.50;2112832;27;46625;-61
2023/10/05 00:57:24;;;;;;;;;7.00;7.00;;;;;21.43;100.00;102008.53;2112428;27;46052;-60
2023/10/05 00:58:34;;;;;;;;;9.60;9.00;;;;;21.52;100.00;102012.66;2110084;27;46583;-59
2023/10/05 00:59:38;;;;;;;;;7.50;7.50;;;;;21.44;100.00;102007.59;2111895;27;46364;-59
2023/10/05 01:00:50;;;;;;;;;10.50;8.00;;;;;21.41;100.00;102007.75;2113204;27;46382;-61
2023/10/05 01:02:05;;;;;;;;;10.80;10.20;;;;;21.40;100.00;102011.38;2111480;27;46343;-61
2023/10/05 01:03:25;;;;;;;;;10.50;10.25;;;;;21.39;100.00;102010.50;2108559;27;46352;-62
2023/10/05 01:05:35;;;;;;;;;10.75;9.75;;;;;21.41;100.00;102011.31;2102860;27;46954;-61
2023/10/05 01:06:47;;;;;;;;;9.50;8.50;;;;;21.41;100.00;102014.00;2112026;27;46688;-58
2023/10/05 01:07:56;;;;;;;;;10.00;9.60;;;;;21.42;100.00;102017.59;2110129;27;46426;-62
2023/10/05 01:09:00;;;;;;;;;9.75;9.75;;;;;21.44;100.00;102023.78;2104049;28;46945;-60
2023/10/05 01:11:02;;;;;;;;;9.50;8.75;;;;;21.47;100.00;102039.88;2103458;28;46786;-60
2023/10/05 01:12:13;;;;;;;;;10.00;8.33;;;;;21.44;100.00;102031.88;2101527;28;45856;-60
2023/10/05 01:13:36;;;;;;;;;9.00;9.00;;;;;21.47;100.00;102041.66;2094852;28;46518;-61
2023/10/05 01:14:38;;;;;;;;;11.80;10.00;;;;;21.40;100.00;102043.78;2096703;28;46816;-63
2023/10/05 01:15:39;;;;;;;;;11.75;10.00;;;;;21.39;100.00;102034.81;2102094;28;46523;-62
2023/10/05 01:16:39;;;;;;;;;7.00;7.00;;;;;21.38;100.00;102032.19;2101798;28;46238;-62
2023/10/05 01:17:40;;;;;;;;;9.00;9.00;;;;;21.36;100.00;102032.25;2098367;28;46561;-59
2023/10/05 01:18:40;;;;;;;;;10.00;8.50;;;;;21.38;100.00;102040.28;2102579;28;46264;-62
2023/10/05 01:19:42;;;;;;;;;13.60;12.80;;;;;21.36;100.00;102031.38;2102203;27;46395;-61
2023/10/05 01:20:43;;;;;;;;;9.80;9.80;;;;;21.37;100.00;102025.91;2102340;28;46532;-62
2023/10/05 01:21:44;;;;;;;;;9.33;9.00;;;;;21.38;100.00;102026.78;2101194;28;46181;-60
2023/10/05 01:22:45;;;;;;;;;8.75;8.75;;;;;21.40;100.00;102027.59;2102759;28;46563;-61
2023/10/05 01:23:48;;;;;;;;;7.50;7.25;;;;;21.40;100.00;102030.28;2100764;28;46955;-62
2023/10/05 01:24:49;;;;;;;;;10.00;9.00;;;;;21.40;100.00;102028.47;2100925;28;47044;-61
2023/10/05 01:25:50;;;;;;;;;7.25;6.75;;;;;21.40;100.00;102024.88;2099873;28;46833;-60
2023/10/05 01:26:50;;;;;;;;;8.00;5.00;;;;;21.41;100.00;102019.41;2103421;28;46837;-60
2023/10/05 01:27:51;;;;;;;;;9.50;7.50;;;;;21.44;100.00;102013.84;2093866;28;46681;-61
2023/10/05 01:28:52;;;;;;;;;8.80;8.80;;;;;21.44;100.00;102011.16;2095078;28;46328;-59
2023/10/05 01:29:52;;;;;;;;;8.67;8.67;;;;;21.45;100.00;102020.13;2099042;28;46967;-59
2023/10/05 01:30:53;;;;;;;;;9.00;7.67;;;;;21.43;100.00;102016.63;2095104;28;46674;-62
2023/10/05 01:31:53;;;;;;;;;9.00;8.00;;;;;21.42;100.00;102026.56;2091963;28;46533;-60
2023/10/05 01:32:54;;;;;;;;;12.00;8.67;;;;;21.41;100.00;102016.72;2103423;28;46753;-58
2023/10/05 01:33:55;;;;;;;;;7.67;7.67;;;;;21.42;100.00;102023.00;2101587;28;45965;-60
2023/10/05 01:34:55;;;;;;;;;9.25;9.25;;;;;21.43;100.00;102019.34;2100127;28;46408;-60
2023/10/05 01:35:56;;;;;;;;;10.50;9.75;;;;;21.43;100.00;102014.81;2101727;28;46676;-61
2023/10/05 01:36:58;;;;;;;;;10.67;7.33;;;;;21.44;100.00;102010.28;2092581;28;46224;-60
2023/10/05 01:37:59;;;;;;;;;9.50;8.75;;;;;21.45;100.00;102009.34;2090782;28;46864;-61
2023/10/05 01:39:07;;;;;;;;;8.75;6.75;;;;;21.75;100.00;102007.03;2101872;28;47189;-62
2023/10/05 01:40:12;;;;;;;;;9.25;9.25;;;;;21.41;100.00;101999.63;2101939;27;46600;-60
2023/10/05 01:41:21;;;;;;;;;10.75;8.75;;;;;21.34;100.00;101999.06;2094102;28;46845;-58
2023/10/05 01:42:21;;;;;;;;;8.00;7.75;;;;;21.66;100.00;101993.94;2097768;27;46862;-61
2023/10/05 01:43:22;;;;;;;;;9.67;8.33;;;;;21.57;100.00;101987.16;2107560;27;46860;-61
2023/10/05 01:44:25;;;;;;;;;7.00;7.00;;;;;21.57;100.00;101983.56;2111756;27;46935;-60
2023/10/05 01:45:29;;;;;;;;;10.50;9.75;;;;;21.53;100.00;101990.97;2112001;27;46875;-61
2023/10/05 01:46:36;;;;;;;;;9.20;8.80;;;;;21.52;100.00;101988.34;2112850;27;46573;-61
2023/10/05 01:47:38;;;;;;;;;9.00;9.00;;;;;21.54;100.00;101991.84;2111822;27;46765;-59
2023/10/05 01:48:40;;;;;;;;;8.50;7.75;;;;;21.53;100.00;101996.34;2113028;27;46577;-60
2023/10/05 01:49:41;;;;;;;;;8.60;7.20;;;;;21.52;100.00;101993.72;2110905;27;46758;-59
2023/10/05 01:50:44;;;;;;;;;8.00;7.00;;;;;21.53;100.00;102000.88;2112348;27;46470;-61
2023/10/05 01:51:45;;;;;;;;;9.00;6.50;;;;;21.59;100.00;101995.19;2110880;27;46671;-60
2023/10/05 01:52:55;;;;;;;;;8.50;6.50;;;;;21.59;100.00;101995.19;2112734;27;46823;-61
2023/10/05 01:53:58;;;;;;;;;7.25;7.00;;;;;21.50;100.00;101992.94;2108967;27;46244;-61
2023/10/05 01:54:59;;;;;;;;;8.25;8.25;;;;;21.48;100.00;101982.22;2105997;27;46664;-62
2023/10/05 01:55:59;;;;;;;;;9.67;8.00;;;;;21.46;100.00;101994.88;2112219;27;46821;-61
2023/10/05 01:57:07;;;;;;;;;9.25;8.25;;;;;21.45;100.00;101995.84;2112155;27;46470;-61
2023/10/05 01:58:08;;;;;;;;;8.00;6.75;;;;;21.43;100.00;101997.72;2111478;27;45296;-61
2023/10/05 01:59:12;;;;;;;;;9.80;9.80;;;;;21.42;100.00;102001.38;2113192;27;46277;-63
2023/10/05 02:00:17;;;;;;;;;10.20;9.00;;;;;21.40;100.00;102004.16;2111108;27;47030;-61
2023/10/05 02:01:24;;;;;;;;;6.00;6.00;;;;;21.41;100.00;102007.75;2111862;27;46723;-57
2023/10/05 02:02:26;;;;;;;;;9.60;9.60;;;;;21.39;100.00;102007.81;2112295;27;46943;-59
2023/10/05 02:03:27;;;;;;;;;6.50;6.50;;;;;21.38;100.00;102002.47;2111383;27;46602;-60
2023/10/05 02:04:29;;;;;;;;;8.00;8.00;;;;;21.36;100.00;102005.25;2112892;27;46599;-58
2023/10/05 02:05:30;;;;;;;;;9.40;8.60;;;;;21.35;100.00;101999.94;2111842;27;46338;-58
2023/10/05 02:06:42;;;;;;;;;8.50;8.25;;;;;21.36;100.00;102001.69;2112655;27;46334;-60
2023/10/05 02:07:42;;;;;;;;;6.60;6.60;;;;;21.33;100.00;101999.97;2111796;27;47017;-59
2023/10/05 02:08:43;;;;;;;;;8.00;8.00;;;;;21.34;100.00;102003.56;2112649;27;46028;-60
2023/10/05 02:09:43;;;;;;;;;8.67;8.33;;;;;21.32;100.00;101998.22;2111926;27;46605;-57
2023/10/05 02:10:46;;;;;;;;;9.33;9.33;;;;;21.33;100.00;102005.38;2112890;27;46843;-60
2023/10/05 02:11:47;;;;;;;;;7.50;7.25;;;;;21.34;100.00;101999.06;2111427;27;46503;-59
2023/10/05 02:12:51;;;;;;;;;4.00;4.00;;;;;21.35;100.00;102002.63;2112853;27;46321;-58
2023/10/05 02:13:57;;;;;;;;;8.25;7.00;;;;;21.34;100.00;101999.06;2111924;27;46635;-60
2023/10/05 02:15:00;;;;;;;;;8.50;8.50;;;;;21.36;100.00;101998.97;2106053;27;46383;-59
2023/10/05 02:16:02;;;;;;;;;9.75;9.00;;;;;21.36;100.00;101994.47;2111421;27;46818;-59
2023/10/05 02:17:04;;;;;;;;;7.25;7.25;;;;;21.38;100.00;101992.56;2104022;27;46558;-58
2023/10/05 02:18:13;;;;;;;;;8.25;8.25;;;;;21.37;100.00;101988.09;2102042;27;46560;-59
2023/10/05 02:19:14;;;;;;;;;7.80;7.80;;;;;21.38;100.00;101983.59;2113314;27;47003;-58
2023/10/05 02:20:38;;;;;;;;;5.75;5.75;;;;;21.37;100.00;101984.53;2113755;27;46630;-60
2023/10/05 02:21:37;;;;;;;;;7.75;7.50;;;;;21.36;100.00;101975.56;2113118;27;47000;-59
2023/10/05 02:22:40;;;;;;;;;10.00;8.00;;;;;21.35;100.00;101976.50;2113246;27;46708;-60
2023/10/05 02:23:41;;;;;;;;;8.25;7.00;;;;;21.36;100.00;101977.38;2112651;27;46881;-60
2023/10/05 02:24:42;;;;;;;;;7.00;6.50;;;;;21.35;100.00;101981.03;2113697;27;46911;-60
2023/10/05 02:25:43;;;;;;;;;7.00;7.00;;;;;21.33;100.00;101985.59;2113054;27;46373;-60
2023/10/05 02:28:00;;;;;;;;;13.00;13.00;;;;;21.42;100.00;101983.34;2111956;27;46639;-58
2023/10/05 02:29:13;;;;;;;;;54.00;44.50;;;;;21.44;100.00;101976.06;2105325;28;46476;-60
2023/10/05 02:30:14;;;;;;;;;124.67;114.67;;;;;21.45;100.00;101974.22;2079936;28;46908;-60
2023/10/05 02:31:15;;;;;;;;;129.00;123.33;;;;;21.46;100.00;101981.38;2090857;27;46365;-60
2023/10/05 02:32:21;;;;;;;;;103.67;98.00;;;;;21.44;100.00;101986.84;2102991;28;45975;-61
2023/10/05 02:33:26;;;;;;;;;56.60;46.00;;;;;21.45;100.00;101987.72;2101393;27;46771;-59
2023/10/05 02:34:44;;;;;;;;;52.40;42.20;;;;;21.48;100.00;101981.34;2110554;27;46459;-60
2023/10/05 02:35:48;;;;;;;;;38.80;33.60;;;;;21.49;100.00;101986.66;2113040;27;46385;-60
2023/10/05 02:36:50;;;;;;;;;23.20;23.20;;;;;21.51;100.00;101986.59;2104003;28;46514;-58
2023/10/05 02:37:52;;;;;;;;;31.40;29.00;;;;;21.51;100.00;101984.75;2103850;27;46937;-57
2023/10/05 02:38:53;;;;;;;;;24.80;22.00;;;;;21.52;100.00;101977.53;2114218;27;46390;-58
2023/10/05 02:39:57;;;;;;;;;30.75;28.25;;;;;21.54;100.00;101976.50;2112428;27;46727;-60
2023/10/05 02:40:59;;;;;;;;;39.00;33.60;;;;;21.53;100.00;101988.25;2105948;27;46703;-60
2023/10/05 02:42:03;;;;;;;;;20.80;18.60;;;;;21.54;100.00;101986.44;2113217;27;46774;-59
2023/10/05 02:43:07;;;;;;;;;19.00;18.80;;;;;21.53;100.00;101981.97;2111631;27;46194;-58
2023/10/05 02:44:19;;;;;;;;;30.20;28.40;;;;;21.53;100.00;101985.56;2112511;27;46491;-57
2023/10/05 02:45:21;;;;;;;;;29.80;28.40;;;;;21.52;100.00;101986.50;2099291;28;47037;-60
2023/10/05 02:46:24;;;;;;;;;11.20;10.00;;;;;21.53;100.00;101987.38;2107551;27;46368;-56
2023/10/05 02:47:24;;;;;;;;;23.20;21.80;;;;;21.50;100.00;101980.31;2112983;27;46928;-58
2023/10/05 02:48:24;;;;;;;;;31.50;29.50;;;;;21.50;100.00;101984.84;2113824;27;46305;-60
2023/10/05 02:49:25;;;;;;;;;13.00;13.00;;;;;21.49;100.00;101978.56;2110376;27;46492;-61
2023/10/05 02:50:27;;;;;;;;;25.75;25.25;;;;;21.49;100.00;101978.56;2102512;28;46682;-59
2023/10/05 02:51:29;;;;;;;;;22.60;19.40;;;;;21.48;100.00;101978.63;2102904;28;46815;-59
2023/10/05 02:52:32;;;;;;;;;21.20;20.40;;;;;21.47;100.00;101990.34;2112444;27;46486;-60
2023/10/05 02:53:56;;;;;;;;;18.00;15.40;;;;;21.46;100.00;101984.06;2112899;27;47019;-61
2023/10/05 02:54:56;;;;;;;;;24.60;24.20;;;;;21.45;100.00;101993.13;2113766;27;46551;-62
2023/10/05 02:55:57;;;;;;;;;17.50;17.25;;;;;21.44;100.00;101992.25;2112828;27;45609;-62
2023/10/05 02:56:57;;;;;;;;;17.00;14.25;;;;;21.44;100.00;101988.69;2114041;27;46450;-61
2023/10/05 02:57:59;;;;;;;;;16.25;14.75;;;;;21.42;100.00;101994.16;2113006;27;46541;-58
2023/10/05 02:59:07;;;;;;;;;18.40;18.20;;;;;21.41;100.00;101992.41;2113590;27;46922;-59
2023/10/05 03:00:09;;;;;;;;;15.40;13.60;;;;;21.41;100.00;101991.53;2112234;27;46409;-60
2023/10/05 03:01:13;;;;;;;;;16.60;15.00;;;;;21.40;100.00;101987.94;2113403;27;46612;-58
2023/10/05 03:02:14;;;;;;;;;14.40;13.40;;;;;21.41;100.00;101988.81;2111844;27;46732;-58
2023/10/05 03:03:15;;;;;;;;;15.00;14.25;;;;;21.40;100.00;101985.25;2113188;27;46511;-59
2023/10/05 03:05:16;;;;;;;;;13.25;12.25;;;;;21.40;100.00;101978.97;2113000;27;47386;-60
2023/10/05 03:06:16;;;;;;;;;12.50;11.75;;;;;21.41;100.00;101972.63;2113099;27;46110;-59
2023/10/05 03:07:18;;;;;;;;;13.25;13.25;;;;;21.43;100.00;101977.00;2111443;27;46289;-60
2023/10/05 03:08:22;;;;;;;;;10.50;10.50;;;;;21.44;100.00;101978.75;2111990;27;46780;-60
2023/10/05 03:09:22;;;;;;;;;16.80;15.80;;;;;21.45;100.00;101969.69;2112731;27;46815;-60
2023/10/05 03:10:23;;;;;;;;;9.33;9.33;;;;;21.45;100.00;101977.81;2113747;27;46755;-59
2023/10/05 03:11:25;;;;;;;;;15.00;14.00;;;;;21.45;100.00;101977.81;2112962;27;46673;-61
2023/10/05 03:12:26;;;;;;;;;12.20;10.60;;;;;21.42;100.00;101977.94;2112962;27;46425;-61
2023/10/05 03:13:27;;;;;;;;;12.00;11.00;;;;;21.42;100.00;101979.78;2112998;27;46388;-61
2023/10/05 03:14:28;;;;;;;;;9.50;9.50;;;;;21.41;100.00;101978.91;2113867;27;47051;-62
2023/10/05 03:15:28;;;;;;;;;9.25;9.25;;;;;21.40;100.00;101979.84;2112453;27;46783;-60
2023/10/05 03:16:29;;;;;;;;;10.00;9.50;;;;;21.39;100.00;101985.34;2113912;27;46866;-61
2023/10/05 03:17:31;;;;;;;;;9.00;9.00;;;;;21.37;100.00;101979.13;2112900;27;46454;-60
2023/10/05 03:18:37;;;;;;;;;14.40;12.60;;;;;21.38;100.00;101976.34;2112799;27;46326;-62
2023/10/05 03:19:38;;;;;;;;;9.60;7.80;;;;;21.45;100.00;101979.63;2112823;27;46995;-61
2023/10/05 03:20:40;;;;;;;;;14.75;12.25;;;;;21.48;100.00;101970.53;2114106;27;46651;-59
2023/10/05 03:21:40;;;;;;;;;10.25;10.25;;;;;21.47;100.00;101972.34;2112866;27;46539;-59
2023/10/05 03:22:41;;;;;;;;;15.00;14.00;;;;;21.47;100.00;101974.16;2103919;28;46289;-60
2023/10/05 03:23:42;;;;;;;;;11.00;11.00;;;;;21.50;100.00;101968.63;2103017;28;46662;-62
2023/10/05 03:24:44;;;;;;;;;13.80;13.60;;;;;21.51;100.00;101967.69;2110946;27;46364;-60
2023/10/05 03:25:47;;;;;;;;;10.75;10.75;;;;;21.53;100.00;101976.56;2111517;27;46784;-60
2023/10/05 03:26:47;;;;;;;;;12.00;11.25;;;;;21.53;100.00;101965.78;2113491;27;46998;-59
2023/10/05 03:27:48;;;;;;;;;9.67;9.67;;;;;21.53;100.00;101963.06;2113218;27;46394;-62
2023/10/05 03:28:49;;;;;;;;;13.33;13.33;;;;;21.55;100.00;101971.97;2113995;27;46621;-61
2023/10/05 03:29:52;;;;;;;;;11.00;8.33;;;;;21.54;100.00;101968.41;2111930;27;46625;-62
2023/10/05 03:30:53;;;;;;;;;8.75;8.00;;;;;21.45;100.00;101969.69;2113270;27;47408;-57
2023/10/05 03:31:55;;;;;;;;;7.00;7.00;;;;;21.42;100.00;101971.69;2112163;27;46772;-61
2023/10/05 03:33:00;;;;;;;;;12.25;12.25;;;;;21.39;100.00;101977.22;2114032;27;46987;-60
2023/10/05 03:34:00;;;;;;;;;7.60;7.60;;;;;21.38;100.00;101978.19;2112286;27;46739;-58
2023/10/05 03:35:01;;;;;;;;;13.00;11.00;;;;;21.38;100.00;101978.19;2113758;27;46477;-59
2023/10/05 03:36:06;;;;;;;;;9.00;8.00;;;;;21.38;100.00;101979.06;2111872;27;46345;-57
2023/10/05 03:37:08;;;;;;;;;13.75;10.25;;;;;21.39;100.00;101974.53;2114129;27;46389;-60
2023/10/05 03:38:09;;;;;;;;;13.20;11.00;;;;;21.37;100.00;101976.44;2108988;27;46562;-61
2023/10/05 03:39:10;;;;;;;;;11.00;11.00;;;;;21.34;100.00;101969.34;2113611;27;46305;-60
2023/10/05 03:40:24;;;;;;;;;14.40;10.80;;;;;21.34;100.00;101960.34;2113426;27;47179;-61
2023/10/05 03:41:26;;;;;;;;;10.75;10.50;;;;;21.34;100.00;101965.75;2110092;27;47008;-61
2023/10/05 03:42:26;;;;;;;;;10.00;10.00;;;;;21.32;100.00;101970.34;2112671;27;46469;-62
2023/10/05 03:43:27;;;;;;;;;14.50;11.75;;;;;21.30;100.00;101972.25;2113136;27;46778;-61
2023/10/05 03:44:27;;;;;;;;;8.67;8.67;;;;;21.30;100.00;101970.41;2113408;27;46705;-55
2023/10/05 03:45:28;;;;;;;;;11.00;9.00;;;;;21.32;100.00;101976.63;2112486;27;46697;-60
2023/10/05 03:46:29;;;;;;;;;8.00;7.75;;;;;21.33;100.00;101969.41;2113521;27;46387;-62
2023/10/05 03:47:30;;;;;;;;;11.00;10.00;;;;;21.33;100.00;101972.97;2112910;27;46350;-61
2023/10/05 03:48:32;;;;;;;;;7.25;7.25;;;;;21.32;100.00;101973.94;2113279;27;46353;-61
2023/10/05 03:49:33;;;;;;;;;13.60;10.60;;;;;21.30;100.00;101974.94;2103486;27;46535;-60
2023/10/05 03:50:33;;;;;;;;;12.40;10.60;;;;;21.29;100.00;101979.47;2103921;27;46631;-63
2023/10/05 03:51:37;;;;;;;;;10.25;10.25;;;;;21.29;100.00;101978.59;2114360;27;46827;-59
2023/10/05 03:52:37;;;;;;;;;8.80;7.80;;;;;21.26;100.00;101979.63;2112639;27;46869;-61
2023/10/05 03:53:38;;;;;;;;;10.50;7.75;;;;;21.27;100.00;101983.19;2112643;27;46691;-58
2023/10/05 03:54:38;;;;;;;;;8.50;8.50;;;;;21.26;100.00;101984.16;2114259;27;46594;-59
2023/10/05 03:55:38;;;;;;;;;10.00;9.25;;;;;21.25;100.00;101988.66;2112465;27;46619;-60
2023/10/05 03:56:42;;;;;;;;;11.50;10.25;;;;;21.26;100.00;101994.94;2113371;27;46020;-62
2023/10/05 03:57:42;;;;;;;;;9.00;9.00;;;;;21.27;100.00;101994.00;2110564;27;46315;-61
2023/10/05 03:58:44;;;;;;;;;10.25;9.75;;;;;21.28;100.00;101995.75;2113260;27;46274;-62
2023/10/05 03:59:44;;;;;;;;;5.40;4.40;;;;;21.28;100.00;101995.75;2112770;27;46462;-59
2023/10/05 04:00:49;;;;;;;;;10.00;10.00;;;;;21.27;100.00;101994.88;2113796;27;46984;-59
2023/10/05 04:01:49;;;;;;;;;5.80;5.80;;;;;21.26;100.00;101992.25;2111580;27;46365;-62
2023/10/05 04:02:52;;;;;;;;;7.00;7.00;;;;;21.26;100.00;102003.03;2112380;27;47159;-62
2023/10/05 04:03:54;;;;;;;;;10.60;10.60;;;;;21.25;100.00;101995.88;2112490;27;46570;-60
2023/10/05 04:04:54;;;;;;;;;8.00;8.00;;;;;21.25;100.00;102009.38;2107573;27;46394;-61
2023/10/05 04:05:55;;;;;;;;;7.50;7.50;;;;;21.24;100.00;102004.91;2112375;27;46337;-62
2023/10/05 04:06:55;;;;;;;;;7.00;7.00;;;;;21.20;100.00;101997.88;2113821;27;46600;-60
2023/10/05 04:08:07;;;;;;;;;9.75;9.75;;;;;21.20;100.00;102001.44;2112673;27;46491;-61
2023/10/05 04:09:15;;;;;;;;;7.40;7.20;;;;;21.18;100.00;101992.56;2107263;27;46427;-62
2023/10/05 04:10:21;;;;;;;;;9.50;7.00;;;;;21.19;100.00;102002.41;2112355;27;46326;-61
2023/10/05 04:11:21;;;;;;;;;8.20;8.20;;;;;21.19;100.00;101999.69;2112549;27;46644;-60
2023/10/05 04:12:22;;;;;;;;;8.50;7.75;;;;;21.19;100.00;101993.44;2113498;27;46603;-61
2023/10/05 04:13:23;;;;;;;;;7.75;7.00;;;;;21.17;100.00;101988.09;2108691;27;46654;-61
2023/10/05 04:14:26;;;;;;;;;5.80;5.00;;;;;21.16;100.00;101987.22;2109626;27;46835;-61
2023/10/05 04:15:26;;;;;;;;;6.75;6.75;;;;;21.15;100.00;101987.31;2110013;27;46488;-57
2023/10/05 04:16:28;;;;;;;;;9.00;8.00;;;;;21.13;100.00;101987.38;2107451;27;46366;-62
2023/10/05 04:17:29;;;;;;;;;7.40;6.80;;;;;21.12;100.00;101988.31;2106361;27;46885;-60
2023/10/05 04:18:29;;;;;;;;;9.00;7.75;;;;;21.10;100.00;101990.22;2113649;27;46465;-61
2023/10/05 04:19:31;;;;;;;;;6.00;6.00;;;;;21.10;100.00;101983.94;2112228;27;46701;-61
2023/10/05 04:20:33;;;;;;;;;5.80;5.80;;;;;21.07;100.00;101990.34;2113256;27;46846;-61
2023/10/05 04:21:33;;;;;;;;;9.80;6.60;;;;;21.06;100.00;101991.28;2112254;27;46630;-60
2023/10/05 04:22:34;;;;;;;;;5.50;4.00;;;;;21.05;100.00;101992.22;2113572;27;46654;-61
2023/10/05 04:23:34;;;;;;;;;3.75;2.75;;;;;21.01;100.00;101987.94;2112424;27;46629;-61
2023/10/05 04:24:34;;;;;;;;;6.00;5.33;;;;;21.02;100.00;101984.28;2113072;27;46720;-63
2023/10/05 04:25:35;;;;;;;;;10.75;9.25;;;;;21.02;100.00;101988.81;2110400;27;47247;-61
2023/10/05 04:26:44;;;;;;;;;8.75;7.50;;;;;21.02;100.00;101988.81;2112122;27;46335;-62
2023/10/05 04:27:46;;;;;;;;;12.20;7.80;;;;;21.00;100.00;101996.97;2112375;27;47049;-60
2023/10/05 04:28:57;;;;;;;;;8.40;7.00;;;;;21.01;100.00;101995.16;2112957;27;46646;-62
2023/10/05 04:29:58;;;;;;;;;6.40;6.40;;;;;21.00;100.00;101996.09;2111063;27;46487;-59
2023/10/05 04:30:59;;;;;;;;;5.80;5.80;;;;;20.99;100.00;101997.94;2113103;27;46446;-63
2023/10/05 04:32:00;;;;;;;;;8.75;8.75;;;;;20.99;100.00;102000.63;2112293;27;46431;-62
2023/10/05 04:33:03;;;;;;;;;7.00;5.75;;;;;20.99;100.00;102010.53;2112248;27;46854;-61
2023/10/05 04:34:11;;;;;;;;;9.40;8.00;;;;;20.99;100.00;102010.53;2111927;27;46945;-57
2023/10/05 04:35:32;;;;;;;;;7.20;7.20;;;;;20.99;100.00;102013.25;2112110;27;46919;-62
2023/10/05 04:36:32;;;;;;;;;6.20;6.20;;;;;20.99;100.00;102011.41;2110205;27;46513;-62
2023/10/05 04:37:33;;;;;;;;;6.50;6.50;;;;;20.99;100.00;102007.84;2112099;27;46218;-62
2023/10/05 04:38:33;;;;;;;;;8.00;8.00;;;;;20.97;100.00;102007.91;2113364;27;46524;-59
2023/10/05 04:39:36;;;;;;;;;9.00;8.00;;;;;20.98;100.00;102008.78;2111841;27;46617;-61
2023/10/05 04:40:38;;;;;;;;;7.80;6.80;;;;;20.97;100.00;102013.31;2104319;28;46877;-59
2023/10/05 04:41:48;;;;;;;;;9.20;8.20;;;;;20.97;100.00;102007.03;2103837;27;46465;-59
2023/10/05 04:42:50;;;;;;;;;7.00;6.40;;;;;20.96;100.00;102016.06;2113378;27;46432;-60
2023/10/05 04:43:50;;;;;;;;;5.40;5.40;;;;;20.96;100.00;102002.56;2112325;27;46935;-59
2023/10/05 04:44:52;;;;;;;;;6.33;6.33;;;;;20.94;100.00;102002.63;2113383;27;46466;-60
2023/10/05 04:45:52;;;;;;;;;6.00;6.00;;;;;20.91;100.00;102002.78;2111848;27;47089;-59
2023/10/05 04:46:53;;;;;;;;;6.50;5.00;;;;;20.91;100.00;102004.59;2113416;27;46660;-60
2023/10/05 04:47:58;;;;;;;;;7.75;7.75;;;;;20.90;100.00;102002.84;2112114;27;46201;-61
2023/10/05 04:49:07;;;;;;;;;8.00;8.00;;;;;20.91;100.00;102004.59;2103893;28;46706;-61
2023/10/05 04:50:13;;;;;;;;;7.20;7.20;;;;;20.90;100.00;101997.44;2102869;27;46457;-59
2023/10/05 04:51:14;;;;;;;;;6.20;6.20;;;;;20.88;100.00;101994.81;2112233;27;46804;-61
2023/10/05 04:52:19;;;;;;;;;8.50;7.25;;;;;20.87;100.00;101990.38;2111828;27;46334;-61
2023/10/05 04:53:20;;;;;;;;;4.60;4.60;;;;;20.88;100.00;101991.25;2112940;27;46237;-62
2023/10/05 04:54:25;;;;;;;;;11.00;8.00;;;;;20.85;100.00;101986.88;2113237;27;47151;-60